Airfield :
LOGIN :

Register | Disclaimer

   EN    FR    IT 

 










Legend :    VFR   Marginal VFR   IFR   Intensive IFR   Very Intensive IFR
Visi :
Ceiling :
>= 8 km
>= 3000ft
5 to 8 km
1000 to 3000 ft
1500m to 5 km
500 to 1000 ft
800 to 1500m
200 to 500 ft
< 800m
< 200 ft
Symbols :   Thunderstorms  Fog  Heavy snow  Heavy precipitations  Wind > 20 kt
SIGMETs :     Misc.  Thunderstorms  Icing  Turbulence  Mountain Waves  Volcanic Ashes






- Airport Elevation : 112 ft
- IATA code : SVQ


LEZL - Sevilla San Pablo

CURRENT METAR :
  • 270500Z 05003KT 0250 R27/0600N R09/0225N FG VV001 08/08 Q1026 NOSIG

EXPIRED METARs :
  • 270430Z 02003KT 0300 R27/0550U R09/0450N FG VV001 08/08 Q1026 NOSIG
  • 270400Z 00000KT 0250 R27/0300N R09/0350N FG VV001 09/09 Q1026 NOSIG
  • 270330Z VRB01KT 0200 R27/0450N R09/0250N FG VV001 09/09 Q1026 NOSIG
  • 270319Z VRB02KT 0150 R27/0500N R09/0275N FG VV001 09/09 Q1026 NOSIG
  • 270300Z VRB02KT 1000 R27/1900D R09/0700D BCFG SCT002 08/08 Q1026 NOSIG
  • 270230Z 07002KT 5000 BR FEW002 08/08 Q1026 NOSIG

TAF TAF LEZL
Valid from the 27 at 03:00 until the 28 at 03:00 UTC


270200Z 2703/2803 VRB03KT CAVOK TX14/2715Z TN05/2707Z
TEMPO 2703/2710 3000 BR
PROB40
TEMPO 2703/2709 0300 FG VV001
PROB40
TEMPO 2709/2711 BKN003



MET'MAP, your aeronautical weather chart ! - Copyright ORBIFLY December 2007 - Disclaimer

ORBIFLY MET'MAP TEAM :

Programming & Development : Alexandra Zaïnal
Concept & original design : Baudouin d'Aumeries
Assistance for programming : Marc-Olivier Méhu
Technical & hardware support : Manuel Goepfert

Contact : metmap@orbifly.com




SOURCES & CREDITS :

   NOAA